• Join FlightAware (Why Join?)
  • Login
  • US Flag 
05:55AM EDT


 

Airport Tracker/Info


-or-


 

Live Flight TrackerFlight Track Log ✈ AWE9325 ✈ 14-Jun-2013 ✈ KLAX - KPHX

Flight Track Log - Related Links

Times and Time Zones

All times are in EDT time to prevent confusion due to time zone crossing. See the AWE9325 flight status page for this flight to view local times or setup timezone preferences in your user account.

Time Position Orientation Groundspeed Altitude Reporting Facility
EDT Latitude Longitude Course Direction KTS MPH feet Rate Location/Type
07:46PM 33.9185 -117.9719 94° East  Level Estimated
07:47PM 33.9123 -117.8629 94° East  Level Estimated
07:48PM 33.9059 -117.7540 94° East  Level Estimated
07:49PM 33.8995 -117.6450 94° East  Level Estimated
07:50PM 33.8929 -117.5360 94° East  Level Estimated
07:51PM 33.8863 -117.4271 94° East  Level Estimated
07:52PM 33.8796 -117.3182 94° East  Level Estimated
07:53PM 33.8728 -117.2093 94° East  Level Estimated
07:54PM 33.8659 -117.1004 94° East  Level Estimated
07:55PM 33.8589 -116.9916 94° East  Level Estimated
07:56PM 33.8518 -116.8827 94° East  Level Estimated
07:57PM 33.8446 -116.7739 95° East  Level Estimated
07:58PM 33.8373 -116.6651 95° East  Level Estimated
07:59PM 33.8299 -116.5563 95° East  Level Estimated
08:00PM 33.8224 -116.4475 95° East  Level Estimated
08:01PM 33.8148 -116.3388 95° East  Level Estimated
08:02PM 33.8071 -116.2300 95° East  Level Estimated
08:03PM 33.7994 -116.1213 95° East  Level Estimated
08:04PM 33.7915 -116.0126 95° East  Level Estimated
08:05PM 33.7835 -115.9040 95° East  Level Estimated
08:06PM 33.7755 -115.7953 95° East  Level Estimated
08:07PM 33.7673 -115.6867 95° East  Level Estimated
08:08PM 33.7591 -115.5781 95° East  Level Estimated
08:09PM 33.7507 -115.4695 95° East  Level Estimated
08:10PM 33.7423 -115.3609 95° East  Level Estimated
08:11PM 33.7337 -115.2524 95° East  Level Estimated
08:12PM 33.7251 -115.1439 95° East  Level Estimated
08:13PM 33.7164 -115.0354 95° East  Level Estimated
08:14PM 33.7076 -114.9269 96° East  Level Estimated
08:15PM 33.6987 -114.8184 96° East  Level Estimated
08:16PM 33.6897 -114.7100 96° East  Level Estimated
08:17PM 33.6806 -114.6016 96° East  Level Estimated
08:18PM 33.6714 -114.4932 96° East  Level Estimated
08:19PM 33.6621 -114.3848 96° East  Level Estimated
08:20PM 33.6527 -114.2765 96° East  Level Estimated
08:21PM 33.6432 -114.1682 96° East  Level Estimated
08:22PM 33.6336 -114.0599 96° East  Level Estimated
08:23PM 33.6240 -113.9516 96° East  Level Estimated
08:24PM 33.6142 -113.8434 96° East  Level Estimated
08:25PM 33.6043 -113.7352 96° East  Level Estimated
08:26PM 33.5944 -113.6270 96° East  Level Estimated
08:27PM 33.5843 -113.5188 96° East  Level Estimated
08:28PM 33.5742 -113.4107 96° East  Level Estimated
08:29PM 33.5639 -113.3025 96° East  Level Estimated
08:30PM 33.5536 -113.1944 97° East  Level Estimated
08:31PM 33.5432 -113.0864 97° East  Level Estimated
08:32PM 33.5327 -112.9783 97° East  Level Estimated
08:33PM 33.5221 -112.8703 97° East  Level Estimated
08:34PM 33.5114 -112.7623 97° East  Level Estimated
08:35PM 33.5006 -112.6544 97° East  Level Estimated
08:36PM 33.4893 -112.5426 97° East  Level Estimated
08:37PM 33.4779 -112.4309 97° East  Level Estimated
08:38PM 33.4664 -112.3193 97° East  Level Estimated
08:39PM 33.4549 -112.2077 97° East  Level Estimated
08:40PM 33.4432 -112.0961 97° East  Level Estimated
08:41PM 33.4343 -112.0116 97° East  Level Estimated
08:42PM 33.4343 -112.0116 231° Southwest  Level Estimated
08:43PM 33.4343 -112.0116 231° Southwest  Level Estimated
08:44PM 33.4343 -112.0116 231° Southwest  Level Estimated
08:45PM 33.4343 -112.0116 231° Southwest  Level Estimated
08:46PM 33.4343 -112.0116 231° Southwest  Level Estimated
08:47PM 33.4343 -112.0116 231° Southwest  Level Estimated
08:48PM 33.4343 -112.0116 231° Southwest  Level Estimated